createdAt,value
2022-11-10T00:01:07.473Z,10.43
2022-11-10T00:03:35.546Z,10.42
2022-11-10T00:06:06.527Z,10.40
2022-11-10T00:08:32.960Z,10.42
2022-11-10T00:11:06.262Z,10.37
2022-11-10T00:13:35.517Z,10.32
2022-11-10T00:16:23.496Z,10.28
2022-11-10T00:18:50.545Z,10.30
2022-11-10T00:21:18.128Z,10.36
2022-11-10T00:23:47.464Z,10.39
2022-11-10T00:26:18.032Z,10.40
2022-11-10T00:28:44.955Z,10.38
2022-11-10T00:31:12.522Z,10.38
2022-11-10T00:33:40.735Z,10.47
2022-11-10T00:36:07.918Z,10.44
2022-11-10T00:38:34.514Z,10.49
2022-11-10T00:41:01.882Z,10.48
2022-11-10T00:43:29.693Z,10.53
2022-11-10T00:45:56.982Z,10.49
2022-11-10T00:48:23.444Z,10.49
2022-11-10T00:50:49.929Z,10.39
2022-11-10T00:53:18.835Z,10.44
2022-11-10T00:55:45.402Z,10.46
2022-11-10T00:58:11.903Z,10.44
2022-11-10T01:00:38.281Z,10.45
2022-11-10T01:03:04.772Z,10.48
2022-11-10T01:05:31.549Z,10.40
2022-11-10T01:07:59.599Z,10.42
2022-11-10T01:10:26.836Z,10.27
2022-11-10T01:12:54.051Z,10.28
2022-11-10T01:15:26.131Z,10.31
2022-11-10T01:17:55.752Z,10.20
2022-11-10T01:20:24.368Z,10.18
2022-11-10T01:22:50.838Z,10.20
2022-11-10T01:25:17.310Z,10.31
2022-11-10T01:27:43.758Z,10.29
2022-11-10T01:30:10.684Z,10.28
2022-11-10T01:32:37.040Z,10.22
2022-11-10T01:35:03.925Z,10.17
2022-11-10T01:37:30.731Z,10.14
2022-11-10T01:39:57.183Z,10.08
2022-11-10T01:42:38.181Z,10.05
2022-11-10T01:45:22.992Z,9.98
2022-11-10T01:47:59.630Z,9.96
2022-11-10T01:50:30.108Z,10.02
2022-11-10T01:52:59.989Z,10.03
2022-11-10T01:55:27.322Z,10.10
2022-11-10T01:57:54.879Z,10.07
2022-11-10T02:00:22.477Z,10.01
2022-11-10T02:03:03.545Z,10.01
2022-11-10T02:05:30.711Z,9.99
2022-11-10T02:07:57.318Z,10.02
2022-11-10T02:10:23.819Z,10.05
2022-11-10T02:12:50.581Z,10.06
2022-11-10T02:15:18.692Z,10.02
2022-11-10T02:17:49.020Z,9.99
2022-11-10T02:20:20.288Z,9.99
2022-11-10T02:22:47.105Z,9.92
2022-11-10T02:25:19.289Z,9.97
2022-11-10T02:27:45.859Z,9.75
2022-11-10T02:30:12.891Z,9.76
2022-11-10T02:32:39.435Z,9.71
2022-11-10T02:35:06.376Z,9.69
2022-11-10T02:37:33.134Z,9.70
2022-11-10T02:39:59.551Z,9.75
2022-11-10T02:42:25.988Z,9.70
2022-11-10T02:44:52.602Z,9.47
2022-11-10T02:47:19.008Z,9.38
2022-11-10T02:49:45.621Z,9.45
2022-11-10T02:52:12.263Z,9.36
2022-11-10T02:54:38.616Z,9.39
2022-11-10T02:57:05.125Z,9.39
2022-11-10T02:59:31.524Z,9.43
2022-11-10T03:01:57.987Z,9.43
2022-11-10T03:04:24.350Z,9.50
2022-11-10T03:06:50.931Z,9.61
2022-11-10T03:09:17.334Z,9.56
2022-11-10T03:11:43.824Z,9.48
2022-11-10T03:14:10.188Z,9.57
2022-11-10T03:16:36.716Z,9.57
2022-11-10T03:19:03.219Z,9.51
2022-11-10T03:21:29.807Z,9.47
2022-11-10T03:23:56.221Z,9.34
2022-11-10T03:26:22.876Z,9.31
2022-11-10T03:28:49.263Z,9.28
2022-11-10T03:31:15.794Z,9.19
2022-11-10T03:33:42.412Z,9.07
2022-11-10T03:36:09.053Z,9.11
2022-11-10T03:38:35.754Z,9.08
2022-11-10T03:41:19.677Z,8.95
2022-11-10T03:43:47.849Z,8.96
2022-11-10T03:46:14.265Z,8.94
2022-11-10T03:48:40.888Z,8.94
2022-11-10T03:51:07.608Z,8.88
2022-11-10T03:53:34.030Z,8.77
2022-11-10T03:56:04.974Z,8.85
2022-11-10T03:58:31.697Z,8.89
2022-11-10T04:00:58.826Z,8.91
2022-11-10T04:03:25.685Z,8.94
2022-11-10T04:06:11.088Z,8.90
2022-11-10T04:08:56.114Z,8.84
2022-11-10T04:11:41.303Z,8.93
2022-11-10T04:14:26.246Z,8.79
2022-11-10T04:16:53.002Z,8.73
2022-11-10T04:19:19.584Z,8.74
2022-11-10T04:21:45.968Z,8.79
2022-11-10T04:24:12.563Z,8.82
2022-11-10T04:26:40.467Z,8.79
2022-11-10T04:29:11.221Z,8.73
2022-11-10T04:31:39.865Z,8.67
2022-11-10T04:34:08.395Z,8.78
2022-11-10T04:36:36.644Z,8.76
2022-11-10T04:39:04.798Z,8.76
2022-11-10T04:41:31.701Z,8.75
2022-11-10T04:43:59.151Z,8.78
2022-11-10T04:46:36.891Z,8.72
2022-11-10T04:49:04.689Z,8.72
2022-11-10T04:51:36.812Z,8.70
2022-11-10T04:54:04.299Z,8.66
2022-11-10T04:56:31.049Z,8.66
2022-11-10T04:58:57.657Z,8.72
2022-11-10T05:01:26.902Z,8.73
2022-11-10T05:03:54.608Z,8.67
2022-11-10T05:06:21.917Z,8.63
2022-11-10T05:08:48.703Z,8.59
2022-11-10T05:11:15.231Z,8.62
2022-11-10T05:13:42.726Z,8.57
2022-11-10T05:16:09.894Z,8.52
2022-11-10T05:18:36.548Z,8.45
2022-11-10T05:21:03.339Z,8.42
2022-11-10T05:23:38.681Z,8.44
2022-11-10T05:26:06.372Z,8.42
2022-11-10T05:28:33.774Z,8.33
2022-11-10T05:31:00.167Z,8.33
2022-11-10T05:33:26.721Z,8.24
2022-11-10T05:35:54.359Z,8.19
2022-11-10T05:38:20.829Z,8.19
2022-11-10T05:40:47.413Z,8.20
2022-11-10T05:43:14.310Z,8.18
2022-11-10T05:45:40.838Z,8.11
2022-11-10T05:48:07.463Z,8.10
2022-11-10T05:50:33.844Z,8.05
2022-11-10T05:53:00.308Z,8.10
2022-11-10T05:55:28.753Z,8.12
2022-11-10T05:57:57.288Z,8.10
2022-11-10T06:00:28.236Z,8.02
2022-11-10T06:03:03.682Z,7.99
2022-11-10T06:05:33.007Z,7.98
2022-11-10T06:07:59.786Z,7.93
2022-11-10T06:10:26.598Z,7.91
2022-11-10T06:12:53.429Z,7.86
2022-11-10T06:15:20.096Z,7.86
2022-11-10T06:17:46.697Z,7.85
2022-11-10T06:20:14.989Z,7.91
2022-11-10T06:22:41.648Z,7.92
2022-11-10T06:25:10.218Z,7.82
2022-11-10T06:27:37.180Z,7.83
2022-11-10T06:30:04.548Z,7.81
2022-11-10T06:32:32.885Z,7.87
2022-11-10T06:35:00.634Z,7.87
2022-11-10T06:37:27.453Z,7.87
2022-11-10T06:39:53.948Z,7.77
2022-11-10T06:42:20.385Z,7.75
2022-11-10T06:44:46.895Z,7.83
2022-11-10T06:47:13.266Z,7.85
2022-11-10T06:49:39.831Z,7.87
2022-11-10T06:52:06.343Z,7.82
2022-11-10T06:54:32.745Z,7.71
2022-11-10T06:56:59.278Z,7.72
2022-11-10T06:59:25.693Z,7.74
2022-11-10T07:01:52.145Z,7.81
2022-11-10T07:04:20.085Z,7.84
2022-11-10T07:06:47.968Z,7.83
2022-11-10T07:09:14.892Z,7.80
2022-11-10T07:11:41.747Z,7.78
2022-11-10T07:14:08.180Z,7.78
2022-11-10T07:16:34.687Z,7.78
2022-11-10T07:19:01.111Z,7.85
2022-11-10T07:21:27.612Z,7.80
2022-11-10T07:23:53.994Z,7.82
2022-11-10T07:26:20.544Z,7.86
2022-11-10T07:28:46.930Z,7.82
2022-11-10T07:31:13.772Z,7.92
2022-11-10T07:33:40.179Z,7.88
2022-11-10T07:36:07.263Z,7.85
2022-11-10T07:38:33.683Z,7.87
2022-11-10T07:41:00.100Z,7.92
2022-11-10T07:43:26.525Z,7.87
2022-11-10T07:45:53.524Z,7.86
2022-11-10T07:48:20.207Z,7.93
2022-11-10T07:50:46.731Z,7.96
2022-11-10T07:53:19.852Z,8.03
2022-11-10T07:55:46.773Z,8.03
2022-11-10T07:58:15.794Z,8.06
2022-11-10T08:00:43.041Z,8.09
2022-11-10T08:03:20.844Z,8.13
2022-11-10T08:05:47.957Z,8.14
2022-11-10T08:08:14.567Z,8.17
2022-11-10T08:10:41.759Z,8.20
2022-11-10T08:13:10.314Z,8.26
2022-11-10T08:15:37.276Z,8.25
2022-11-10T08:18:07.975Z,8.29
2022-11-10T08:20:35.086Z,8.34
2022-11-10T08:23:04.728Z,8.39
2022-11-10T08:25:35.361Z,8.45
2022-11-10T08:28:06.749Z,8.43
2022-11-10T08:30:34.778Z,8.49
2022-11-10T08:33:02.877Z,8.48
2022-11-10T08:35:31.085Z,8.54
2022-11-10T08:37:57.728Z,8.60
2022-11-10T08:40:27.566Z,8.68
2022-11-10T08:43:02.170Z,8.70
2022-11-10T08:45:29.269Z,8.74
2022-11-10T08:47:59.989Z,8.81
2022-11-10T08:50:27.672Z,8.87
2022-11-10T08:52:54.467Z,8.90
2022-11-10T08:55:21.574Z,9.05
2022-11-10T08:57:48.509Z,9.11
2022-11-10T09:00:16.738Z,9.15
2022-11-10T09:02:43.132Z,9.21
2022-11-10T09:05:10.227Z,9.28
2022-11-10T09:07:46.822Z,9.39
2022-11-10T09:10:14.212Z,9.43
2022-11-10T09:12:42.337Z,9.53
2022-11-10T09:15:10.643Z,9.62
2022-11-10T09:17:40.938Z,9.65
2022-11-10T09:20:09.433Z,9.71
2022-11-10T09:22:36.439Z,9.77
2022-11-10T09:25:03.908Z,9.84
2022-11-10T09:27:30.727Z,9.88
2022-11-10T09:29:57.348Z,10.01
2022-11-10T09:32:23.924Z,10.00
2022-11-10T09:34:53.076Z,10.03
2022-11-10T09:37:19.783Z,10.14
2022-11-10T09:39:46.310Z,10.25
2022-11-10T09:42:34.052Z,10.38
2022-11-10T09:45:27.032Z,10.44
2022-11-10T09:48:29.611Z,10.61
2022-11-10T09:51:03.055Z,10.70
2022-11-10T09:53:38.305Z,10.73
2022-11-10T09:56:06.956Z,10.86
2022-11-10T09:58:43.393Z,10.94
2022-11-10T10:01:36.121Z,11.01
2022-11-10T10:04:31.989Z,11.10
2022-11-10T10:07:31.586Z,11.11
2022-11-10T10:10:17.745Z,11.20
2022-11-10T10:12:55.832Z,11.22
2022-11-10T10:15:49.411Z,11.35
2022-11-10T10:18:29.755Z,11.39
2022-11-10T10:21:15.529Z,11.53
2022-11-10T10:26:41.072Z,11.60
2022-11-10T10:29:44.461Z,11.66
2022-11-10T10:32:13.263Z,11.75
2022-11-10T10:34:41.172Z,11.76
2022-11-10T10:37:26.832Z,11.75
2022-11-10T10:39:55.417Z,11.77
2022-11-10T10:42:36.806Z,11.80
2022-11-10T10:45:23.073Z,11.85
2022-11-10T10:47:52.099Z,11.81
2022-11-10T10:50:34.886Z,11.87
2022-11-10T10:53:19.165Z,11.80
2022-11-10T10:56:05.882Z,11.90
2022-11-10T10:58:49.834Z,11.94
2022-11-10T11:01:16.208Z,12.01
2022-11-10T11:03:51.487Z,12.11
2022-11-10T11:06:21.384Z,12.04
2022-11-10T11:09:29.335Z,12.11
2022-11-10T11:12:01.822Z,12.17
2022-11-10T11:14:30.377Z,12.25
2022-11-10T11:17:21.116Z,12.20
2022-11-10T11:19:58.541Z,12.30
2022-11-10T11:23:12.443Z,12.31
2022-11-10T11:25:43.561Z,12.40
2022-11-10T11:28:28.483Z,12.43
2022-11-10T11:31:09.903Z,12.45
2022-11-10T11:34:07.113Z,12.53
2022-11-10T11:37:11.247Z,12.63
2022-11-10T11:39:57.257Z,12.65
2022-11-10T11:42:26.646Z,12.75
2022-11-10T11:45:15.424Z,12.80
2022-11-10T11:47:57.701Z,12.86
2022-11-10T11:50:50.300Z,12.88
2022-11-10T11:53:38.057Z,12.90
2022-11-10T11:56:17.777Z,12.92
2022-11-10T11:59:05.880Z,12.95
2022-11-10T12:01:32.420Z,12.94
2022-11-10T12:04:19.116Z,12.93
2022-11-10T12:07:11.231Z,12.76
2022-11-10T12:09:43.914Z,12.71
2022-11-10T12:12:36.644Z,12.70
2022-11-10T12:15:15.395Z,12.80
2022-11-10T12:18:12.806Z,12.89
2022-11-10T12:20:57.516Z,12.97
2022-11-10T12:23:39.124Z,13.04
2022-11-10T12:26:29.784Z,13.16
2022-11-10T12:29:09.346Z,13.11
2022-11-10T12:31:38.162Z,13.16
2022-11-10T12:34:22.348Z,13.16
2022-11-10T12:36:50.919Z,13.26
2022-11-10T12:39:25.897Z,13.32
2022-11-10T12:42:00.212Z,13.29
2022-11-10T12:44:54.080Z,13.29
2022-11-10T12:47:25.938Z,13.25
2022-11-10T12:50:15.440Z,13.27
2022-11-10T12:52:55.052Z,13.34
2022-11-10T12:55:35.104Z,13.41
2022-11-10T12:58:05.706Z,13.46
2022-11-10T13:00:43.571Z,13.40
2022-11-10T13:03:27.196Z,13.37
2022-11-10T13:06:05.730Z,13.36
2022-11-10T13:08:41.162Z,13.38
2022-11-10T13:11:13.626Z,13.35
2022-11-10T13:14:00.197Z,13.35
2022-11-10T13:16:40.281Z,13.32
2022-11-10T13:19:11.705Z,13.30
2022-11-10T13:22:01.041Z,13.34
2022-11-10T13:24:28.873Z,13.35
2022-11-10T13:27:11.239Z,13.37
2022-11-10T13:29:43.768Z,13.42
2022-11-10T13:32:13.509Z,13.38
2022-11-10T13:34:41.853Z,13.36
2022-11-10T13:37:53.716Z,13.36
2022-11-10T13:40:23.348Z,13.31
2022-11-10T13:42:59.124Z,13.36
2022-11-10T13:45:34.393Z,13.37
2022-11-10T13:48:12.268Z,13.38
2022-11-10T13:51:07.052Z,13.37
2022-11-10T13:53:33.412Z,13.35
2022-11-10T13:56:32.079Z,13.33
2022-11-10T13:58:59.293Z,13.28
2022-11-10T14:01:30.093Z,13.24
2022-11-10T14:04:00.386Z,13.25
2022-11-10T14:06:45.528Z,13.14
2022-11-10T14:09:27.140Z,13.07
2022-11-10T14:11:59.558Z,13.02
2022-11-10T14:14:33.511Z,12.97
2022-11-10T14:17:00.955Z,12.94
2022-11-10T14:19:43.270Z,12.90
2022-11-10T14:22:25.753Z,12.87
2022-11-10T14:25:19.462Z,12.82
2022-11-10T14:27:46.015Z,12.80
2022-11-10T14:30:21.475Z,12.73
2022-11-10T14:33:00.818Z,12.78
2022-11-10T14:35:30.312Z,12.72
2022-11-10T14:38:02.374Z,12.69
2022-11-10T14:40:29.684Z,12.64
2022-11-10T14:42:57.075Z,12.60
2022-11-10T14:45:26.296Z,12.54
2022-11-10T14:47:59.067Z,12.40
2022-11-10T14:50:34.547Z,12.32
2022-11-10T14:53:21.571Z,12.24
2022-11-10T14:55:54.737Z,12.21
2022-11-10T14:58:28.157Z,12.10
2022-11-10T15:00:54.928Z,12.05
2022-11-10T15:03:36.451Z,12.03
2022-11-10T15:06:05.370Z,11.96
2022-11-10T15:08:32.474Z,11.87
2022-11-10T15:10:59.078Z,11.78
2022-11-10T15:13:28.748Z,11.63
2022-11-10T15:16:23.013Z,11.57
2022-11-10T15:18:51.013Z,11.47
2022-11-10T15:21:19.814Z,11.31
2022-11-10T15:23:52.402Z,11.21
2022-11-10T15:26:25.109Z,11.08
2022-11-10T15:28:52.860Z,10.93
2022-11-10T15:31:30.718Z,10.93
2022-11-10T15:33:59.789Z,10.88
2022-11-10T15:36:35.579Z,10.71
2022-11-10T15:39:23.267Z,10.59
2022-11-10T15:41:56.792Z,10.53
2022-11-10T15:44:25.886Z,10.35
2022-11-10T15:46:54.876Z,10.34
2022-11-10T15:49:32.466Z,10.26
2022-11-10T15:52:05.252Z,10.27
2022-11-10T15:54:36.100Z,10.26
2022-11-10T15:57:02.548Z,10.25
2022-11-10T15:59:29.126Z,10.23
2022-11-10T16:01:55.828Z,10.24
2022-11-10T16:04:22.271Z,10.05
2022-11-10T16:06:49.037Z,10.02
2022-11-10T16:09:15.534Z,10.01
2022-11-10T16:11:44.458Z,10.07
2022-11-10T16:14:15.580Z,9.95
2022-11-10T16:16:42.473Z,9.95
2022-11-10T16:19:11.294Z,9.89
2022-11-10T16:21:37.824Z,9.80
2022-11-10T16:24:04.604Z,9.78
2022-11-10T16:26:33.128Z,9.71
2022-11-10T16:28:59.693Z,9.69
2022-11-10T16:31:27.004Z,9.59
2022-11-10T16:33:53.531Z,9.55
2022-11-10T16:36:23.538Z,9.48
2022-11-10T16:38:50.148Z,9.47
2022-11-10T16:41:16.775Z,9.39
2022-11-10T16:43:43.216Z,9.39
2022-11-10T16:46:22.497Z,9.45
2022-11-10T16:48:51.068Z,9.41
2022-11-10T16:51:18.177Z,9.45
2022-11-10T16:53:45.417Z,9.38
2022-11-10T16:56:15.979Z,9.29
2022-11-10T16:58:42.881Z,9.19
2022-11-10T17:01:22.387Z,9.26
2022-11-10T17:03:52.035Z,9.26
2022-11-10T17:06:20.841Z,9.18
2022-11-10T17:08:52.942Z,9.24
2022-11-10T17:11:19.409Z,9.22
2022-11-10T17:13:46.001Z,9.22
2022-11-10T17:16:12.329Z,9.21
2022-11-10T17:18:38.944Z,9.16
2022-11-10T17:21:08.439Z,9.11
2022-11-10T17:23:35.991Z,9.12
2022-11-10T17:26:02.550Z,9.01
2022-11-10T17:28:29.116Z,8.98
2022-11-10T17:30:56.201Z,8.89
2022-11-10T17:33:22.998Z,8.91
2022-11-10T17:35:52.439Z,8.98
2022-11-10T17:38:28.264Z,8.93
2022-11-10T17:40:55.034Z,8.95
2022-11-10T17:43:23.077Z,8.87
2022-11-10T17:45:50.993Z,8.91
2022-11-10T17:48:17.535Z,8.86
2022-11-10T17:50:46.742Z,8.88
2022-11-10T17:53:17.599Z,8.89
2022-11-10T17:55:44.218Z,8.87
2022-11-10T17:58:11.023Z,8.86
2022-11-10T18:00:37.632Z,8.83
2022-11-10T18:03:08.426Z,8.76
2022-11-10T18:05:35.719Z,8.82
2022-11-10T18:08:02.120Z,8.77
2022-11-10T18:10:28.576Z,8.76
2022-11-10T18:12:54.955Z,8.75
2022-11-10T18:15:21.595Z,8.75
2022-11-10T18:17:48.043Z,8.72
2022-11-10T18:20:14.647Z,8.73
2022-11-10T18:22:41.161Z,8.67
2022-11-10T18:25:08.993Z,8.68
2022-11-10T18:27:36.318Z,8.63
2022-11-10T18:30:04.477Z,8.63
2022-11-10T18:32:31.133Z,8.59
2022-11-10T18:34:57.493Z,8.55
2022-11-10T18:37:23.992Z,8.53
2022-11-10T18:39:50.433Z,8.51
2022-11-10T18:42:16.946Z,8.58
2022-11-10T18:44:43.420Z,8.49
2022-11-10T18:47:12.387Z,8.48
2022-11-10T18:49:41.581Z,8.43
2022-11-10T18:52:10.794Z,8.37
2022-11-10T18:54:37.235Z,8.44
2022-11-10T18:57:03.695Z,8.44
2022-11-10T18:59:30.233Z,8.29
2022-11-10T19:01:56.795Z,8.34
2022-11-10T19:04:23.366Z,8.35
2022-11-10T19:06:49.837Z,8.33
2022-11-10T19:09:16.323Z,8.37
2022-11-10T19:11:43.738Z,8.51
2022-11-10T19:14:10.312Z,8.45
2022-11-10T19:16:36.783Z,8.44
2022-11-10T19:19:03.453Z,8.52
2022-11-10T19:21:30.160Z,8.55
2022-11-10T19:23:58.000Z,8.60
2022-11-10T19:26:26.521Z,8.61
2022-11-10T19:28:55.504Z,8.59
2022-11-10T19:31:23.684Z,8.65
2022-11-10T19:33:53.441Z,8.63
2022-11-10T19:36:23.141Z,8.63
2022-11-10T19:38:51.354Z,8.63
2022-11-10T19:41:21.262Z,8.66
2022-11-10T19:43:48.207Z,8.58
2022-11-10T19:46:17.740Z,8.63
2022-11-10T19:48:44.918Z,8.63
2022-11-10T19:51:13.537Z,8.70
2022-11-10T19:53:41.706Z,8.66
2022-11-10T19:56:15.085Z,8.64
2022-11-10T19:58:43.037Z,8.72
2022-11-10T20:01:11.897Z,8.64
2022-11-10T20:03:39.328Z,8.62
2022-11-10T20:06:24.044Z,8.60
2022-11-10T20:08:50.879Z,8.60
2022-11-10T20:11:21.307Z,8.51
2022-11-10T20:13:54.214Z,8.43
2022-11-10T20:16:21.533Z,8.40
2022-11-10T20:18:48.295Z,8.32
2022-11-10T20:21:17.641Z,8.32
2022-11-10T20:23:44.465Z,8.34
2022-11-10T20:26:13.649Z,8.27
2022-11-10T20:28:43.382Z,8.21
2022-11-10T20:31:38.476Z,8.29
2022-11-10T20:34:04.993Z,8.18
2022-11-10T20:36:32.203Z,8.22
2022-11-10T20:39:02.138Z,8.21
2022-11-10T20:41:32.984Z,8.19
2022-11-10T20:43:59.530Z,8.14
2022-11-10T20:46:53.025Z,8.13
2022-11-10T20:49:13.857Z,8.17
2022-11-10T20:51:41.919Z,8.15
2022-11-10T20:54:09.108Z,8.17
2022-11-10T20:56:35.553Z,8.19
2022-11-10T20:59:02.234Z,8.20
2022-11-10T21:01:28.867Z,8.14
2022-11-10T21:03:55.381Z,8.20
2022-11-10T21:06:21.839Z,8.24
2022-11-10T21:08:48.627Z,8.25
2022-11-10T21:11:35.216Z,8.23
2022-11-10T21:14:01.945Z,8.22
2022-11-10T21:16:28.853Z,8.31
2022-11-10T21:18:56.566Z,8.28
2022-11-10T21:21:27.913Z,8.25
2022-11-10T21:23:57.202Z,8.31
2022-11-10T21:26:24.152Z,8.29
2022-11-10T21:28:50.591Z,8.24
2022-11-10T21:31:18.386Z,8.26
2022-11-10T21:33:45.186Z,8.32
2022-11-10T21:36:11.775Z,8.32
2022-11-10T21:38:38.400Z,8.27
2022-11-10T21:41:04.914Z,8.27
2022-11-10T21:43:31.766Z,8.26
2022-11-10T21:46:01.549Z,8.22
2022-11-10T21:48:27.959Z,8.19
2022-11-10T21:51:08.806Z,8.21
2022-11-10T21:53:36.266Z,8.24
2022-11-10T21:56:06.065Z,8.25
2022-11-10T21:58:36.498Z,8.16
2022-11-10T22:01:19.014Z,8.17
2022-11-10T22:03:45.433Z,8.20
2022-11-10T22:06:14.262Z,8.12
2022-11-10T22:08:41.895Z,8.11
2022-11-10T22:11:34.181Z,8.10
2022-11-10T22:14:16.005Z,8.02
2022-11-10T22:17:09.198Z,7.98
2022-11-10T22:19:36.981Z,7.95
2022-11-10T22:22:04.349Z,7.91
2022-11-10T22:24:31.084Z,7.92
2022-11-10T22:26:59.533Z,7.87
2022-11-10T22:29:32.023Z,7.77
2022-11-10T22:32:02.402Z,7.89
2022-11-10T22:34:29.230Z,7.83
2022-11-10T22:36:55.806Z,7.89
2022-11-10T22:39:22.570Z,7.85
2022-11-10T22:42:08.167Z,7.85
2022-11-10T22:44:34.470Z,7.76
2022-11-10T22:47:00.916Z,7.78
2022-11-10T22:49:27.417Z,7.67
2022-11-10T22:51:55.236Z,7.73
2022-11-10T22:54:23.544Z,7.65
2022-11-10T22:56:50.997Z,7.58
2022-11-10T22:59:17.984Z,7.49
2022-11-10T23:01:44.798Z,7.48
2022-11-10T23:04:11.776Z,7.50
2022-11-10T23:06:38.529Z,7.53
2022-11-10T23:09:05.575Z,7.47
2022-11-10T23:11:33.670Z,7.48
2022-11-10T23:14:00.453Z,7.56
2022-11-10T23:16:30.416Z,7.51
2022-11-10T23:18:57.690Z,7.46
2022-11-10T23:21:27.358Z,7.51
2022-11-10T23:23:54.080Z,7.44
2022-11-10T23:26:26.844Z,7.38
2022-11-10T23:28:53.503Z,7.41
2022-11-10T23:31:25.411Z,7.41
2022-11-10T23:33:54.370Z,7.40
2022-11-10T23:36:23.162Z,7.32
2022-11-10T23:38:49.920Z,7.35
2022-11-10T23:41:19.183Z,7.40
2022-11-10T23:43:45.847Z,7.39
2022-11-10T23:46:12.646Z,7.39
2022-11-10T23:48:40.168Z,7.27
2022-11-10T23:51:07.915Z,7.22
2022-11-10T23:53:34.407Z,7.30
2022-11-10T23:56:03.579Z,7.22
2022-11-10T23:58:30.509Z,7.21
